sensor_id;sensor_type;location;lat;lon;timestamp;pressure;altitude;pressure_sealevel;temperature;humidity
13934;BME280;7039;52.168;9.866;2023-07-16T00:01:22;99919.63;;;23.33;78.86
13934;BME280;7039;52.168;9.866;2023-07-16T00:03:48;99930.38;;;23.48;78.30
13934;BME280;7039;52.168;9.866;2023-07-16T00:06:15;99930.41;;;23.40;78.42
13934;BME280;7039;52.168;9.866;2023-07-16T00:08:43;99938.59;;;23.62;77.95
13934;BME280;7039;52.168;9.866;2023-07-16T00:11:09;99951.63;;;23.56;77.82
13934;BME280;7039;52.168;9.866;2023-07-16T00:13:35;99953.75;;;23.61;78.36
13934;BME280;7039;52.168;9.866;2023-07-16T00:16:03;99946.78;;;23.60;78.44
13934;BME280;7039;52.168;9.866;2023-07-16T00:18:29;99936.25;;;23.27;78.65
13934;BME280;7039;52.168;9.866;2023-07-16T00:20:56;99946.69;;;23.45;77.44
13934;BME280;7039;52.168;9.866;2023-07-16T00:23:23;99947.09;;;23.57;76.87
13934;BME280;7039;52.168;9.866;2023-07-16T00:25:51;99927.41;;;23.66;76.88
13934;BME280;7039;52.168;9.866;2023-07-16T00:28:17;99901.41;;;23.85;75.26
13934;BME280;7039;52.168;9.866;2023-07-16T00:30:44;99927.50;;;23.89;75.55
13934;BME280;7039;52.168;9.866;2023-07-16T00:33:10;99925.09;;;23.71;76.00
13934;BME280;7039;52.168;9.866;2023-07-16T00:35:37;99917.91;;;23.72;76.18
13934;BME280;7039;52.168;9.866;2023-07-16T00:38:03;99909.19;;;23.86;75.86
13934;BME280;7039;52.168;9.866;2023-07-16T00:40:29;99874.03;;;23.91;75.17
13934;BME280;7039;52.168;9.866;2023-07-16T00:42:57;99853.66;;;23.98;75.45
13934;BME280;7039;52.168;9.866;2023-07-16T00:45:24;99807.00;;;24.02;75.01
13934;BME280;7039;52.168;9.866;2023-07-16T00:47:50;99833.75;;;23.94;75.59
13934;BME280;7039;52.168;9.866;2023-07-16T00:50:17;99862.53;;;23.67;75.62
13934;BME280;7039;52.168;9.866;2023-07-16T00:52:43;99875.72;;;23.61;75.88
13934;BME280;7039;52.168;9.866;2023-07-16T00:55:11;99899.72;;;23.84;75.61
13934;BME280;7039;52.168;9.866;2023-07-16T00:57:38;99904.34;;;23.90;75.85
13934;BME280;7039;52.168;9.866;2023-07-16T01:00:07;99918.09;;;24.02;75.54
13934;BME280;7039;52.168;9.866;2023-07-16T01:02:35;99921.78;;;24.01;75.56
13934;BME280;7039;52.168;9.866;2023-07-16T01:05:01;99929.44;;;23.95;75.96
13934;BME280;7039;52.168;9.866;2023-07-16T01:07:29;99930.97;;;23.59;76.88
13934;BME280;7039;52.168;9.866;2023-07-16T01:09:57;99919.78;;;22.68;78.97
13934;BME280;7039;52.168;9.866;2023-07-16T01:12:25;99925.09;;;22.76;77.90
13934;BME280;7039;52.168;9.866;2023-07-16T01:14:54;99931.03;;;22.94;76.63
13934;BME280;7039;52.168;9.866;2023-07-16T01:17:23;99910.66;;;22.46;78.02
13934;BME280;7039;52.168;9.866;2023-07-16T01:19:50;99923.63;;;22.57;77.06
13934;BME280;7039;52.168;9.866;2023-07-16T01:22:32;99938.22;;;22.20;79.03
13934;BME280;7039;52.168;9.866;2023-07-16T01:25:24;99966.00;;;22.67;77.83
13934;BME280;7039;52.168;9.866;2023-07-16T01:28:06;99966.63;;;22.85;76.84
13934;BME280;7039;52.168;9.866;2023-07-16T01:30:37;99976.94;;;22.64;77.58
13934;BME280;7039;52.168;9.866;2023-07-16T01:33:06;99979.94;;;22.28;78.94
13934;BME280;7039;52.168;9.866;2023-07-16T01:35:35;99992.06;;;22.39;78.76
13934;BME280;7039;52.168;9.866;2023-07-16T01:38:02;99983.00;;;21.48;81.66
13934;BME280;7039;52.168;9.866;2023-07-16T01:40:30;99960.69;;;20.98;84.22
13934;BME280;7039;52.168;9.866;2023-07-16T01:42:57;99962.66;;;20.70;87.13
13934;BME280;7039;52.168;9.866;2023-07-16T01:45:23;100000.50;;;20.80;88.44
13934;BME280;7039;52.168;9.866;2023-07-16T01:47:59;99997.41;;;20.49;88.56
13934;BME280;7039;52.168;9.866;2023-07-16T01:50:29;99989.59;;;20.12;90.89
13934;BME280;7039;52.168;9.866;2023-07-16T01:52:55;100000.28;;;20.20;91.00
13934;BME280;7039;52.168;9.866;2023-07-16T01:55:22;99981.16;;;20.26;92.37
13934;BME280;7039;52.168;9.866;2023-07-16T01:57:48;99961.06;;;20.41;91.37
13934;BME280;7039;52.168;9.866;2023-07-16T02:00:15;99958.44;;;20.59;91.25
13934;BME280;7039;52.168;9.866;2023-07-16T02:02:41;99944.47;;;20.75;90.28
13934;BME280;7039;52.168;9.866;2023-07-16T02:05:09;99944.13;;;20.96;90.37
13934;BME280;7039;52.168;9.866;2023-07-16T02:07:35;99957.59;;;21.03;89.19
13934;BME280;7039;52.168;9.866;2023-07-16T02:10:02;99971.38;;;20.89;90.05
13934;BME280;7039;52.168;9.866;2023-07-16T02:12:29;99975.34;;;20.84;90.13
13934;BME280;7039;52.168;9.866;2023-07-16T02:14:55;99988.69;;;20.75;91.32
13934;BME280;7039;52.168;9.866;2023-07-16T02:17:22;99981.06;;;20.98;89.81
13934;BME280;7039;52.168;9.866;2023-07-16T02:19:48;99991.53;;;20.99;89.84
13934;BME280;7039;52.168;9.866;2023-07-16T02:22:16;99992.69;;;21.05;89.46
13934;BME280;7039;52.168;9.866;2023-07-16T02:24:42;99993.16;;;21.00;88.99
13934;BME280;7039;52.168;9.866;2023-07-16T02:27:09;99996.03;;;21.07;89.18
13934;BME280;7039;52.168;9.866;2023-07-16T02:29:35;99988.94;;;21.08;88.96
13934;BME280;7039;52.168;9.866;2023-07-16T02:32:02;99992.06;;;21.03;88.04
13934;BME280;7039;52.168;9.866;2023-07-16T02:34:28;99988.41;;;21.04;87.81
13934;BME280;7039;52.168;9.866;2023-07-16T02:36:55;99999.88;;;21.13;88.00
13934;BME280;7039;52.168;9.866;2023-07-16T02:39:23;100003.50;;;21.12;87.08
13934;BME280;7039;52.168;9.866;2023-07-16T02:41:50;99997.28;;;20.95;86.55
13934;BME280;7039;52.168;9.866;2023-07-16T02:44:16;100006.91;;;20.96;86.46
13934;BME280;7039;52.168;9.866;2023-07-16T02:46:42;100008.16;;;20.83;88.25
13934;BME280;7039;52.168;9.866;2023-07-16T02:49:10;100009.16;;;20.82;87.97
13934;BME280;7039;52.168;9.866;2023-07-16T02:51:36;100018.63;;;20.67;87.95
13934;BME280;7039;52.168;9.866;2023-07-16T02:54:03;100012.56;;;20.75;87.67
13934;BME280;7039;52.168;9.866;2023-07-16T02:56:30;100008.88;;;20.94;87.42
13934;BME280;7039;52.168;9.866;2023-07-16T02:58:57;100006.28;;;20.76;87.33
13934;BME280;7039;52.168;9.866;2023-07-16T03:01:23;100008.47;;;20.80;86.64
13934;BME280;7039;52.168;9.866;2023-07-16T03:03:50;100009.00;;;20.66;87.46
13934;BME280;7039;52.168;9.866;2023-07-16T03:06:16;100024.06;;;20.65;86.80
13934;BME280;7039;52.168;9.866;2023-07-16T03:08:43;100026.25;;;20.34;88.16
13934;BME280;7039;52.168;9.866;2023-07-16T03:11:10;100026.41;;;20.33;87.66
13934;BME280;7039;52.168;9.866;2023-07-16T03:13:38;100028.97;;;20.24;87.12
13934;BME280;7039;52.168;9.866;2023-07-16T03:16:05;100031.06;;;20.03;87.03
13934;BME280;7039;52.168;9.866;2023-07-16T03:18:32;100035.34;;;19.86;87.37
13934;BME280;7039;52.168;9.866;2023-07-16T03:20:58;100042.06;;;19.80;86.50
13934;BME280;7039;52.168;9.866;2023-07-16T03:23:26;100044.09;;;19.87;85.97
13934;BME280;7039;52.168;9.866;2023-07-16T03:25:52;100034.41;;;19.68;87.03
13934;BME280;7039;52.168;9.866;2023-07-16T03:28:19;100045.16;;;19.76;86.25
13934;BME280;7039;52.168;9.866;2023-07-16T03:30:47;100055.28;;;19.80;86.12
13934;BME280;7039;52.168;9.866;2023-07-16T03:33:14;100055.03;;;19.74;86.47
13934;BME280;7039;52.168;9.866;2023-07-16T03:35:42;100067.97;;;19.77;86.58
13934;BME280;7039;52.168;9.866;2023-07-16T03:38:08;100064.34;;;19.68;86.82
13934;BME280;7039;52.168;9.866;2023-07-16T03:40:35;100073.16;;;19.59;86.93
13934;BME280;7039;52.168;9.866;2023-07-16T03:43:01;100070.50;;;19.59;87.39
13934;BME280;7039;52.168;9.866;2023-07-16T03:45:28;100073.19;;;19.49;87.53
13934;BME280;7039;52.168;9.866;2023-07-16T03:47:55;100070.00;;;19.46;87.62
13934;BME280;7039;52.168;9.866;2023-07-16T03:50:22;100074.41;;;19.55;87.48
13934;BME280;7039;52.168;9.866;2023-07-16T03:52:49;100081.22;;;19.57;87.69
13934;BME280;7039;52.168;9.866;2023-07-16T03:55:15;100079.03;;;19.53;87.44
13934;BME280;7039;52.168;9.866;2023-07-16T03:57:42;100084.09;;;19.36;88.63
13934;BME280;7039;52.168;9.866;2023-07-16T04:00:09;100085.34;;;19.32;87.98
13934;BME280;7039;52.168;9.866;2023-07-16T04:02:36;100082.59;;;19.24;88.89
13934;BME280;7039;52.168;9.866;2023-07-16T04:05:04;100095.00;;;19.24;88.64
13934;BME280;7039;52.168;9.866;2023-07-16T04:07:31;100087.19;;;19.22;88.30
13934;BME280;7039;52.168;9.866;2023-07-16T04:09:57;100091.91;;;19.28;87.87
13934;BME280;7039;52.168;9.866;2023-07-16T04:12:30;100100.97;;;19.16;88.81
13934;BME280;7039;52.168;9.866;2023-07-16T04:14:58;100107.09;;;19.26;88.16
13934;BME280;7039;52.168;9.866;2023-07-16T04:17:25;100120.16;;;19.37;87.62
13934;BME280;7039;52.168;9.866;2023-07-16T04:19:52;100128.34;;;19.44;87.55
13934;BME280;7039;52.168;9.866;2023-07-16T04:22:20;100125.41;;;19.47;87.69
13934;BME280;7039;52.168;9.866;2023-07-16T04:24:46;100134.13;;;19.57;87.96
13934;BME280;7039;52.168;9.866;2023-07-16T04:27:13;100137.47;;;19.59;87.54
13934;BME280;7039;52.168;9.866;2023-07-16T04:29:39;100137.75;;;19.66;87.15
13934;BME280;7039;52.168;9.866;2023-07-16T04:32:06;100139.88;;;19.53;87.40
13934;BME280;7039;52.168;9.866;2023-07-16T04:34:33;100143.47;;;19.61;87.22
13934;BME280;7039;52.168;9.866;2023-07-16T04:36:59;100154.59;;;19.75;86.62
13934;BME280;7039;52.168;9.866;2023-07-16T04:39:27;100155.19;;;19.69;87.31
13934;BME280;7039;52.168;9.866;2023-07-16T04:41:54;100165.47;;;19.62;87.46
13934;BME280;7039;52.168;9.866;2023-07-16T04:44:20;100167.56;;;19.58;87.76
13934;BME280;7039;52.168;9.866;2023-07-16T04:46:47;100166.88;;;19.76;87.11
13934;BME280;7039;52.168;9.866;2023-07-16T04:49:13;100172.69;;;19.79;86.78
13934;BME280;7039;52.168;9.866;2023-07-16T04:51:40;100172.13;;;19.86;86.72
13934;BME280;7039;52.168;9.866;2023-07-16T04:54:06;100173.34;;;19.91;87.22
13934;BME280;7039;52.168;9.866;2023-07-16T04:56:34;100188.09;;;20.03;86.71
13934;BME280;7039;52.168;9.866;2023-07-16T04:59:00;100183.81;;;19.93;87.31
13934;BME280;7039;52.168;9.866;2023-07-16T05:01:27;100186.84;;;20.08;86.64
13934;BME280;7039;52.168;9.866;2023-07-16T05:03:53;100187.09;;;20.14;86.67
13934;BME280;7039;52.168;9.866;2023-07-16T05:06:20;100188.88;;;20.23;86.55
13934;BME280;7039;52.168;9.866;2023-07-16T05:08:47;100177.03;;;20.18;85.98
13934;BME280;7039;52.168;9.866;2023-07-16T05:11:13;100186.28;;;20.32;86.04
13934;BME280;7039;52.168;9.866;2023-07-16T05:13:41;100189.19;;;20.38;86.15
13934;BME280;7039;52.168;9.866;2023-07-16T05:16:07;100189.31;;;20.37;85.98
13934;BME280;7039;52.168;9.866;2023-07-16T05:18:34;100196.00;;;20.41;85.93
13934;BME280;7039;52.168;9.866;2023-07-16T05:21:00;100196.63;;;20.35;85.69
13934;BME280;7039;52.168;9.866;2023-07-16T05:23:27;100199.94;;;20.37;85.58
13934;BME280;7039;52.168;9.866;2023-07-16T05:25:53;100197.25;;;20.47;85.09
13934;BME280;7039;52.168;9.866;2023-07-16T05:28:20;100192.59;;;20.31;85.44
13934;BME280;7039;52.168;9.866;2023-07-16T05:30:47;100201.53;;;20.57;84.52
13934;BME280;7039;52.168;9.866;2023-07-16T05:33:14;100200.63;;;20.39;84.69
13934;BME280;7039;52.168;9.866;2023-07-16T05:35:40;100207.00;;;20.46;84.03
13934;BME280;7039;52.168;9.866;2023-07-16T05:38:07;100209.63;;;20.46;84.27
13934;BME280;7039;52.168;9.866;2023-07-16T05:40:33;100210.47;;;20.56;84.57
13934;BME280;7039;52.168;9.866;2023-07-16T05:43:00;100204.25;;;20.38;83.02
13934;BME280;7039;52.168;9.866;2023-07-16T05:45:26;100210.16;;;20.59;82.96
13934;BME280;7039;52.168;9.866;2023-07-16T05:47:54;100213.16;;;20.74;82.58
13934;BME280;7039;52.168;9.866;2023-07-16T05:50:21;100212.19;;;20.93;80.79
13934;BME280;7039;52.168;9.866;2023-07-16T05:52:47;100211.03;;;20.78;79.65
13934;BME280;7039;52.168;9.866;2023-07-16T05:55:14;100218.94;;;20.88;79.97
13934;BME280;7039;52.168;9.866;2023-07-16T05:57:40;100219.41;;;21.01;79.10
13934;BME280;7039;52.168;9.866;2023-07-16T06:00:08;100208.34;;;21.23;79.12
13934;BME280;7039;52.168;9.866;2023-07-16T06:02:35;100222.13;;;21.09;77.33
13934;BME280;7039;52.168;9.866;2023-07-16T06:05:04;100217.72;;;21.00;76.83
13934;BME280;7039;52.168;9.866;2023-07-16T06:07:30;100221.97;;;21.11;76.01
13934;BME280;7039;52.168;9.866;2023-07-16T06:09:57;100215.44;;;21.23;76.04
13934;BME280;7039;52.168;9.866;2023-07-16T06:12:24;100220.84;;;21.31;74.98
13934;BME280;7039;52.168;9.866;2023-07-16T06:14:50;100220.53;;;21.52;75.49
13934;BME280;7039;52.168;9.866;2023-07-16T06:17:17;100226.91;;;21.59;75.13
13934;BME280;7039;52.168;9.866;2023-07-16T06:19:43;100227.31;;;21.46;74.57
13934;BME280;7039;52.168;9.866;2023-07-16T06:22:11;100220.38;;;21.18;72.64
13934;BME280;7039;52.168;9.866;2023-07-16T06:24:37;100233.88;;;21.24;72.36
13934;BME280;7039;52.168;9.866;2023-07-16T06:27:04;100222.13;;;21.27;71.13
13934;BME280;7039;52.168;9.866;2023-07-16T06:29:31;100217.88;;;21.34;70.82
13934;BME280;7039;52.168;9.866;2023-07-16T06:31:58;100225.63;;;21.45;70.33
13934;BME280;7039;52.168;9.866;2023-07-16T06:34:25;100238.94;;;21.72;69.80
13934;BME280;7039;52.168;9.866;2023-07-16T06:36:51;100221.72;;;21.76;69.27
13934;BME280;7039;52.168;9.866;2023-07-16T06:39:19;100234.81;;;21.51;68.50
13934;BME280;7039;52.168;9.866;2023-07-16T06:41:46;100240.56;;;21.64;68.72
13934;BME280;7039;52.168;9.866;2023-07-16T06:44:12;100237.00;;;21.82;69.00
13934;BME280;7039;52.168;9.866;2023-07-16T06:46:39;100247.09;;;21.96;69.91
13934;BME280;7039;52.168;9.866;2023-07-16T06:49:05;100249.16;;;22.10;70.05
13934;BME280;7039;52.168;9.866;2023-07-16T06:51:32;100242.31;;;21.82;66.61
13934;BME280;7039;52.168;9.866;2023-07-16T06:53:59;100242.06;;;21.93;66.88
13934;BME280;7039;52.168;9.866;2023-07-16T06:56:27;100245.72;;;21.92;66.83
13934;BME280;7039;52.168;9.866;2023-07-16T06:58:53;100249.78;;;21.78;66.72
13934;BME280;7039;52.168;9.866;2023-07-16T07:01:19;100241.94;;;21.51;65.81
13934;BME280;7039;52.168;9.866;2023-07-16T07:03:46;100241.38;;;21.65;66.16
13934;BME280;7039;52.168;9.866;2023-07-16T07:06:13;100240.09;;;21.69;65.67
13934;BME280;7039;52.168;9.866;2023-07-16T07:08:39;100249.94;;;21.77;64.66
13934;BME280;7039;52.168;9.866;2023-07-16T07:11:06;100253.72;;;21.74;63.72
13934;BME280;7039;52.168;9.866;2023-07-16T07:13:33;100258.81;;;21.67;63.15
13934;BME280;7039;52.168;9.866;2023-07-16T07:16:00;100266.56;;;21.43;63.10
13934;BME280;7039;52.168;9.866;2023-07-16T07:18:26;100243.13;;;21.56;62.94
13934;BME280;7039;52.168;9.866;2023-07-16T07:20:53;100263.97;;;21.87;62.82
13934;BME280;7039;52.168;9.866;2023-07-16T07:23:19;100256.25;;;22.02;62.74
13934;BME280;7039;52.168;9.866;2023-07-16T07:25:48;100256.78;;;22.05;62.63
13934;BME280;7039;52.168;9.866;2023-07-16T07:28:15;100257.38;;;21.99;61.87
13934;BME280;7039;52.168;9.866;2023-07-16T07:30:43;100259.16;;;22.17;62.25
13934;BME280;7039;52.168;9.866;2023-07-16T07:33:10;100255.38;;;21.75;60.30
13934;BME280;7039;52.168;9.866;2023-07-16T07:35:36;100257.06;;;22.02;61.35
13934;BME280;7039;52.168;9.866;2023-07-16T07:38:03;100252.66;;;21.85;58.88
13934;BME280;7039;52.168;9.866;2023-07-16T07:40:30;100264.03;;;22.21;59.97
13934;BME280;7039;52.168;9.866;2023-07-16T07:42:56;100271.47;;;22.44;59.66
13934;BME280;7039;52.168;9.866;2023-07-16T07:45:23;100270.72;;;22.07;57.09
13934;BME280;7039;52.168;9.866;2023-07-16T07:47:52;100278.25;;;22.20;56.72
13934;BME280;7039;52.168;9.866;2023-07-16T07:50:18;100264.06;;;22.29;57.18
13934;BME280;7039;52.168;9.866;2023-07-16T07:52:45;100265.91;;;22.29;56.24
13934;BME280;7039;52.168;9.866;2023-07-16T07:55:11;100266.72;;;22.29;54.42
13934;BME280;7039;52.168;9.866;2023-07-16T07:57:38;100282.66;;;22.03;52.66
13934;BME280;7039;52.168;9.866;2023-07-16T08:00:06;100266.38;;;22.24;53.59
13934;BME280;7039;52.168;9.866;2023-07-16T08:02:36;100266.44;;;22.33;54.51
13934;BME280;7039;52.168;9.866;2023-07-16T08:05:05;100255.34;;;22.19;53.46
13934;BME280;7039;52.168;9.866;2023-07-16T08:07:32;100262.97;;;22.40;54.50
13934;BME280;7039;52.168;9.866;2023-07-16T08:09:58;100261.00;;;22.50;54.83
13934;BME280;7039;52.168;9.866;2023-07-16T08:12:25;100269.44;;;22.80;54.12
13934;BME280;7039;52.168;9.866;2023-07-16T08:14:51;100267.97;;;22.86;53.38
13934;BME280;7039;52.168;9.866;2023-07-16T08:17:18;100269.94;;;22.76;53.27
13934;BME280;7039;52.168;9.866;2023-07-16T08:19:44;100276.16;;;22.58;52.87
13934;BME280;7039;52.168;9.866;2023-07-16T08:22:12;100270.09;;;22.74;53.25
13934;BME280;7039;52.168;9.866;2023-07-16T08:24:39;100272.22;;;22.62;52.43
13934;BME280;7039;52.168;9.866;2023-07-16T08:27:05;100285.91;;;22.76;51.91
13934;BME280;7039;52.168;9.866;2023-07-16T08:29:32;100282.34;;;23.01;51.48
13934;BME280;7039;52.168;9.866;2023-07-16T08:31:59;100299.03;;;22.85;51.23
13934;BME280;7039;52.168;9.866;2023-07-16T08:36:52;100288.69;;;22.74;50.21
13934;BME280;7039;52.168;9.866;2023-07-16T08:39:20;100295.19;;;22.71;50.96
13934;BME280;7039;52.168;9.866;2023-07-16T08:41:48;100303.91;;;22.98;52.52
13934;BME280;7039;52.168;9.866;2023-07-16T08:44:14;100289.50;;;23.09;51.89
13934;BME280;7039;52.168;9.866;2023-07-16T08:46:41;100289.94;;;22.96;50.22
13934;BME280;7039;52.168;9.866;2023-07-16T08:49:08;100289.88;;;22.80;50.65
13934;BME280;7039;52.168;9.866;2023-07-16T08:51:34;100281.53;;;23.25;49.92
13934;BME280;7039;52.168;9.866;2023-07-16T08:54:02;100292.16;;;23.01;49.44
13934;BME280;7039;52.168;9.866;2023-07-16T08:56:30;100291.34;;;23.25;49.37
13934;BME280;7039;52.168;9.866;2023-07-16T08:58:57;100284.69;;;23.21;49.59
13934;BME280;7039;52.168;9.866;2023-07-16T09:01:24;100291.56;;;23.48;49.42
13934;BME280;7039;52.168;9.866;2023-07-16T09:03:51;100287.25;;;23.55;49.71
13934;BME280;7039;52.168;9.866;2023-07-16T09:06:17;100298.38;;;23.59;48.21
13934;BME280;7039;52.168;9.866;2023-07-16T09:08:44;100289.03;;;23.22;48.76
13934;BME280;7039;52.168;9.866;2023-07-16T09:11:11;100288.06;;;23.39;48.28
13934;BME280;7039;52.168;9.866;2023-07-16T09:13:43;100296.69;;;23.25;48.17
13934;BME280;7039;52.168;9.866;2023-07-16T09:16:10;100299.03;;;23.52;48.11
13934;BME280;7039;52.168;9.866;2023-07-16T09:18:36;100303.56;;;23.44;49.10
13934;BME280;7039;52.168;9.866;2023-07-16T09:21:03;100291.75;;;23.63;47.74
13934;BME280;7039;52.168;9.866;2023-07-16T09:23:32;100300.25;;;23.91;49.38
13934;BME280;7039;52.168;9.866;2023-07-16T09:25:59;100307.38;;;24.15;48.05
13934;BME280;7039;52.168;9.866;2023-07-16T09:28:25;100307.06;;;24.10;48.70
13934;BME280;7039;52.168;9.866;2023-07-16T09:30:53;100296.56;;;23.67;48.06
13934;BME280;7039;52.168;9.866;2023-07-16T09:33:21;100293.94;;;23.92;48.74
13934;BME280;7039;52.168;9.866;2023-07-16T09:35:51;100304.25;;;23.79;46.61
13934;BME280;7039;52.168;9.866;2023-07-16T09:38:18;100314.06;;;23.86;47.62
13934;BME280;7039;52.168;9.866;2023-07-16T09:40:45;100317.38;;;24.21;48.63
13934;BME280;7039;52.168;9.866;2023-07-16T09:43:12;100313.38;;;24.17;48.56
13934;BME280;7039;52.168;9.866;2023-07-16T09:45:39;100318.53;;;23.61;47.55
13934;BME280;7039;52.168;9.866;2023-07-16T09:48:07;100312.72;;;23.58;47.67
13934;BME280;7039;52.168;9.866;2023-07-16T09:50:34;100324.56;;;23.88;48.47
13934;BME280;7039;52.168;9.866;2023-07-16T09:53:03;100329.06;;;23.87;48.99
13934;BME280;7039;52.168;9.866;2023-07-16T09:55:31;100324.84;;;23.52;47.97
13934;BME280;7039;52.168;9.866;2023-07-16T09:58:01;100327.84;;;23.57;47.74
13934;BME280;7039;52.168;9.866;2023-07-16T10:00:29;100334.19;;;23.89;47.38
13934;BME280;7039;52.168;9.866;2023-07-16T10:02:56;100333.50;;;23.70;47.65
13934;BME280;7039;52.168;9.866;2023-07-16T10:05:26;100345.53;;;24.07;47.54
13934;BME280;7039;52.168;9.866;2023-07-16T10:07:54;100339.88;;;23.94;47.56
13934;BME280;7039;52.168;9.866;2023-07-16T10:10:25;100327.19;;;24.21;46.05
13934;BME280;7039;52.168;9.866;2023-07-16T10:12:55;100336.81;;;24.38;46.63
13934;BME280;7039;52.168;9.866;2023-07-16T10:15:26;100330.66;;;24.29;47.34
13934;BME280;7039;52.168;9.866;2023-07-16T10:17:54;100326.97;;;24.47;47.59
13934;BME280;7039;52.168;9.866;2023-07-16T10:20:29;100341.13;;;25.03;47.36
13934;BME280;7039;52.168;9.866;2023-07-16T10:22:56;100330.63;;;25.01;45.14
13934;BME280;7039;52.168;9.866;2023-07-16T10:25:24;100328.66;;;25.35;46.11
13934;BME280;7039;52.168;9.866;2023-07-16T10:27:52;100323.66;;;24.92;44.07
13934;BME280;7039;52.168;9.866;2023-07-16T10:30:19;100336.88;;;24.86;44.20
13934;BME280;7039;52.168;9.866;2023-07-16T10:32:45;100329.16;;;24.59;43.98
13934;BME280;7039;52.168;9.866;2023-07-16T10:35:12;100344.81;;;24.54;44.16
13934;BME280;7039;52.168;9.866;2023-07-16T10:37:40;100334.69;;;24.89;44.46
13934;BME280;7039;52.168;9.866;2023-07-16T10:40:10;100353.41;;;24.81;43.63
13934;BME280;7039;52.168;9.866;2023-07-16T10:42:37;100344.50;;;24.97;44.33
13934;BME280;7039;52.168;9.866;2023-07-16T10:45:07;100351.41;;;25.23;44.64
13934;BME280;7039;52.168;9.866;2023-07-16T10:47:35;100339.31;;;25.35;44.49
13934;BME280;7039;52.168;9.866;2023-07-16T10:50:04;100352.34;;;25.30;44.37
13934;BME280;7039;52.168;9.866;2023-07-16T10:52:32;100333.03;;;25.28;44.30
13934;BME280;7039;52.168;9.866;2023-07-16T10:55:00;100347.47;;;25.41;44.90
13934;BME280;7039;52.168;9.866;2023-07-16T10:57:28;100358.72;;;25.29;45.34
13934;BME280;7039;52.168;9.866;2023-07-16T10:59:56;100355.41;;;25.18;46.10
13934;BME280;7039;52.168;9.866;2023-07-16T11:02:24;100345.38;;;25.29;45.44
13934;BME280;7039;52.168;9.866;2023-07-16T11:04:51;100361.41;;;25.52;45.12
13934;BME280;7039;52.168;9.866;2023-07-16T11:07:19;100360.69;;;25.81;45.36
13934;BME280;7039;52.168;9.866;2023-07-16T11:09:47;100348.41;;;25.72;43.81
13934;BME280;7039;52.168;9.866;2023-07-16T11:12:17;100341.38;;;25.71;45.05
13934;BME280;7039;52.168;9.866;2023-07-16T11:14:45;100359.75;;;25.97;45.30
13934;BME280;7039;52.168;9.866;2023-07-16T11:17:13;100357.91;;;25.97;42.43
13934;BME280;7039;52.168;9.866;2023-07-16T11:19:44;100362.84;;;25.39;42.82
13934;BME280;7039;52.168;9.866;2023-07-16T11:22:10;100357.66;;;25.61;43.45
13934;BME280;7039;52.168;9.866;2023-07-16T11:24:38;100357.09;;;25.74;42.49
13934;BME280;7039;52.168;9.866;2023-07-16T11:27:12;100352.03;;;25.79;42.67
13934;BME280;7039;52.168;9.866;2023-07-16T11:29:40;100357.81;;;25.36;42.88
13934;BME280;7039;52.168;9.866;2023-07-16T11:32:10;100361.03;;;25.32;42.41
13934;BME280;7039;52.168;9.866;2023-07-16T11:34:37;100357.53;;;25.54;42.80
13934;BME280;7039;52.168;9.866;2023-07-16T11:37:07;100371.38;;;25.89;42.80
13934;BME280;7039;52.168;9.866;2023-07-16T11:39:35;100363.03;;;26.07;43.48
13934;BME280;7039;52.168;9.866;2023-07-16T11:42:02;100357.09;;;26.35;42.08
13934;BME280;7039;52.168;9.866;2023-07-16T11:44:32;100366.47;;;25.93;42.10
13934;BME280;7039;52.168;9.866;2023-07-16T11:47:01;100358.03;;;25.81;41.51
13934;BME280;7039;52.168;9.866;2023-07-16T11:49:27;100356.22;;;26.19;42.98
13934;BME280;7039;52.168;9.866;2023-07-16T11:51:54;100363.72;;;26.54;42.38
13934;BME280;7039;52.168;9.866;2023-07-16T11:54:20;100343.91;;;25.95;39.79
13934;BME280;7039;52.168;9.866;2023-07-16T11:56:46;100363.13;;;26.14;40.01
13934;BME280;7039;52.168;9.866;2023-07-16T11:59:13;100356.28;;;26.11;40.27
13934;BME280;7039;52.168;9.866;2023-07-16T12:01:39;100356.19;;;26.04;40.70
13934;BME280;7039;52.168;9.866;2023-07-16T12:04:07;100366.38;;;25.55;40.02
13934;BME280;7039;52.168;9.866;2023-07-16T12:06:34;100364.25;;;26.19;41.45
13934;BME280;7039;52.168;9.866;2023-07-16T12:09:00;100365.13;;;26.94;40.76
13934;BME280;7039;52.168;9.866;2023-07-16T12:11:27;100361.72;;;26.85;39.50
13934;BME280;7039;52.168;9.866;2023-07-16T12:13:53;100354.03;;;26.38;38.68
13934;BME280;7039;52.168;9.866;2023-07-16T12:16:19;100364.34;;;25.88;41.18
13934;BME280;7039;52.168;9.866;2023-07-16T12:18:46;100365.22;;;25.80;40.67
13934;BME280;7039;52.168;9.866;2023-07-16T12:21:14;100362.06;;;26.00;40.20
13934;BME280;7039;52.168;9.866;2023-07-16T12:23:40;100358.41;;;25.78;41.08
13934;BME280;7039;52.168;9.866;2023-07-16T12:26:07;100350.97;;;25.65;40.69
13934;BME280;7039;52.168;9.866;2023-07-16T12:28:34;100360.03;;;25.79;40.35
13934;BME280;7039;52.168;9.866;2023-07-16T12:31:00;100373.41;;;26.02;40.85
13934;BME280;7039;52.168;9.866;2023-07-16T12:33:27;100360.38;;;26.60;40.40
13934;BME280;7039;52.168;9.866;2023-07-16T12:35:53;100361.94;;;26.69;39.84
13934;BME280;7039;52.168;9.866;2023-07-16T12:38:21;100362.84;;;26.91;39.70
13934;BME280;7039;52.168;9.866;2023-07-16T12:40:48;100373.69;;;27.56;41.86
13934;BME280;7039;52.168;9.866;2023-07-16T12:43:15;100377.38;;;27.55;39.93
13934;BME280;7039;52.168;9.866;2023-07-16T12:45:41;100362.91;;;27.70;38.34
13934;BME280;7039;52.168;9.866;2023-07-16T12:48:07;100378.63;;;27.74;38.54
13934;BME280;7039;52.168;9.866;2023-07-16T12:50:34;100374.53;;;27.56;37.60
13934;BME280;7039;52.168;9.866;2023-07-16T12:53:00;100371.03;;;27.99;38.45
13934;BME280;7039;52.168;9.866;2023-07-16T12:55:29;100377.03;;;27.58;38.79
13934;BME280;7039;52.168;9.866;2023-07-16T12:57:56;100374.16;;;28.02;38.86
13934;BME280;7039;52.168;9.866;2023-07-16T13:00:22;100367.91;;;28.17;37.66
13934;BME280;7039;52.168;9.866;2023-07-16T13:02:49;100376.56;;;28.19;37.30
13934;BME280;7039;52.168;9.866;2023-07-16T13:05:15;100381.59;;;28.28;38.12